createdAt,value
2018-06-02T00:02:18.902Z,17.75
2018-06-02T00:04:47.613Z,17.52
2018-06-02T00:07:16.341Z,17.48
2018-06-02T00:09:45.051Z,18.60
2018-06-02T00:12:13.781Z,16.80
2018-06-02T00:14:42.493Z,16.73
2018-06-02T00:17:11.996Z,17.50
2018-06-02T00:19:41.187Z,18.33
2018-06-02T00:22:10.069Z,14.82
2018-06-02T00:24:38.789Z,14.52
2018-06-02T00:27:07.526Z,14.45
2018-06-02T00:29:36.233Z,15.63
2018-06-02T00:32:05.403Z,15.70
2018-06-02T00:34:34.112Z,16.80
2018-06-02T00:37:03.301Z,16.62
2018-06-02T00:39:32.040Z,17.42
2018-06-02T00:42:00.757Z,17.37
2018-06-02T00:44:29.481Z,18.48
2018-06-02T00:46:58.205Z,16.62
2018-06-02T00:49:26.926Z,17.80
2018-06-02T00:51:55.645Z,17.23
2018-06-02T00:54:36.425Z,15.10
2018-06-02T00:57:06.751Z,15.05
2018-06-02T00:59:36.232Z,16.02
2018-06-02T01:02:04.953Z,16.67
2018-06-02T01:04:33.662Z,17.85
2018-06-02T01:07:02.403Z,17.25
2018-06-02T01:09:31.115Z,18.10
2018-06-02T01:12:00.614Z,14.15
2018-06-02T01:14:30.098Z,16.10
2018-06-02T01:16:59.862Z,15.65
2018-06-02T01:19:28.816Z,14.82
2018-06-02T01:21:57.989Z,15.75
2018-06-02T01:24:26.712Z,15.77
2018-06-02T01:26:56.213Z,13.38
2018-06-02T01:29:25.710Z,15.23
2018-06-02T01:31:54.610Z,15.60
2018-06-02T01:34:24.104Z,14.40
2018-06-02T01:36:52.844Z,14.75
2018-06-02T01:39:21.429Z,15.25
2018-06-02T01:41:50.161Z,15.05
2018-06-02T01:44:18.873Z,15.32
2018-06-02T01:46:47.594Z,13.10
2018-06-02T01:49:16.316Z,13.70
2018-06-02T01:51:45.384Z,15.95
2018-06-02T01:54:14.124Z,14.75
2018-06-02T01:56:43.658Z,14.02
2018-06-02T01:59:12.372Z,13.07
2018-06-02T02:01:41.112Z,13.55
2018-06-02T02:04:10.597Z,13.68
2018-06-02T02:06:40.235Z,12.65
2018-06-02T02:09:10.621Z,13.18
2018-06-02T02:11:39.030Z,14.75
2018-06-02T02:14:07.949Z,11.32
2018-06-02T02:16:36.683Z,12.35
2018-06-02T02:19:05.413Z,12.27
2018-06-02T02:21:34.910Z,12.55
2018-06-02T02:24:04.070Z,11.82
2018-06-02T02:26:32.805Z,12.30
2018-06-02T02:29:02.280Z,11.88
2018-06-02T02:31:31.022Z,10.95
2018-06-02T02:33:59.757Z,11.70
2018-06-02T02:36:28.499Z,10.15
2018-06-02T02:38:57.208Z,12.10
2018-06-02T02:41:25.950Z,10.32
2018-06-02T02:43:55.473Z,10.68
2018-06-02T02:46:24.203Z,9.60
2018-06-02T02:48:52.906Z,8.80
2018-06-02T02:51:21.645Z,9.80
2018-06-02T02:53:50.789Z,10.27
2018-06-02T02:56:19.517Z,9.35
2018-06-02T02:58:48.242Z,11.30
2018-06-02T03:01:16.989Z,10.48
2018-06-02T03:03:45.711Z,10.48
2018-06-02T03:06:14.439Z,9.90
2018-06-02T03:08:43.596Z,10.27
2018-06-02T03:11:12.337Z,10.23
2018-06-02T03:13:41.801Z,9.55
2018-06-02T03:16:10.534Z,11.00
2018-06-02T03:18:40.003Z,9.82
2018-06-02T03:21:08.721Z,9.68
2018-06-02T03:23:37.437Z,8.60
2018-06-02T03:26:06.174Z,9.45
2018-06-02T03:28:34.886Z,9.95
2018-06-02T03:31:03.282Z,11.20
2018-06-02T03:33:32.006Z,9.60
2018-06-02T03:36:00.734Z,9.50
2018-06-02T03:38:29.446Z,9.88
2018-06-02T03:40:58.173Z,8.60
2018-06-02T03:43:26.233Z,9.07
2018-06-02T03:45:54.944Z,7.30
2018-06-02T03:48:23.645Z,7.50
2018-06-02T03:50:52.361Z,7.70
2018-06-02T03:53:21.830Z,7.80
2018-06-02T03:55:50.217Z,7.15
2018-06-02T03:58:18.919Z,6.85
2018-06-02T04:00:48.409Z,6.78
2018-06-02T04:03:17.098Z,6.70
2018-06-02T04:05:45.811Z,7.10
2018-06-02T04:08:15.423Z,7.35
2018-06-02T04:10:44.131Z,6.95
2018-06-02T04:13:12.826Z,7.93
2018-06-02T04:15:42.453Z,7.53
2018-06-02T04:18:11.172Z,7.50
2018-06-02T04:20:39.885Z,7.60
2018-06-02T04:23:09.042Z,8.10
2018-06-02T04:25:38.447Z,7.20
2018-06-02T04:28:07.782Z,7.40
2018-06-02T04:30:37.274Z,7.50
2018-06-02T04:33:06.892Z,6.90
2018-06-02T04:35:35.605Z,5.97
2018-06-02T04:38:04.300Z,6.82
2018-06-02T04:40:33.011Z,6.97
2018-06-02T04:43:01.713Z,7.05
2018-06-02T04:45:30.433Z,6.90
2018-06-02T04:47:59.908Z,6.50
2018-06-02T04:50:28.623Z,7.18
2018-06-02T04:52:57.329Z,6.50
2018-06-02T04:55:26.105Z,5.43
2018-06-02T04:57:55.576Z,5.37
2018-06-02T05:00:24.298Z,6.20
2018-06-02T05:02:53.764Z,5.70
2018-06-02T05:05:22.477Z,5.80
2018-06-02T05:07:51.974Z,5.07
2018-06-02T05:10:20.690Z,4.55
2018-06-02T05:12:50.167Z,5.37
2018-06-02T05:15:19.637Z,5.43
2018-06-02T05:17:48.601Z,5.60
2018-06-02T05:20:17.642Z,5.35
2018-06-02T05:22:46.341Z,5.10
2018-06-02T05:25:15.043Z,5.82
2018-06-02T05:27:43.765Z,5.10
2018-06-02T06:52:11.572Z,3.65
2018-06-02T06:54:40.265Z,4.22
2018-06-02T06:57:09.005Z,4.40
2018-06-02T06:59:37.720Z,3.97
2018-06-02T07:02:07.779Z,4.22
2018-06-02T07:04:37.234Z,4.25
2018-06-02T07:07:05.953Z,5.20
2018-06-02T07:09:34.712Z,4.45
2018-06-02T07:12:04.422Z,4.60
2018-06-02T07:14:33.094Z,4.60
2018-06-02T07:17:01.858Z,4.65
2018-06-02T07:19:30.562Z,3.55
2018-06-02T07:21:59.269Z,3.70
2018-06-02T07:24:27.640Z,4.80
2018-06-02T07:26:56.350Z,3.67
2018-06-02T07:29:25.071Z,4.15
2018-06-02T07:31:54.565Z,3.58
2018-06-02T07:34:23.277Z,3.80
2018-06-02T07:36:53.074Z,3.47
2018-06-02T07:39:21.800Z,3.92
2018-06-02T07:41:50.524Z,3.65
2018-06-02T07:44:19.256Z,3.40
2018-06-02T07:46:48.136Z,3.65
2018-06-02T07:49:16.852Z,2.75
2018-06-02T07:51:45.573Z,3.50
2018-06-02T07:54:14.281Z,3.25
2018-06-02T07:56:43.003Z,2.53
2018-06-02T07:59:11.711Z,2.85
2018-06-02T08:01:40.413Z,2.10
2018-06-02T08:04:09.125Z,3.17
2018-06-02T08:06:37.839Z,3.08
2018-06-02T08:09:07.322Z,2.65
2018-06-02T08:11:37.022Z,2.72
2018-06-02T08:14:05.411Z,3.15
2018-06-02T08:16:34.533Z,2.85
2018-06-02T08:19:04.032Z,2.80
2018-06-02T08:21:33.524Z,2.55
2018-06-02T08:24:02.288Z,2.55
2018-06-02T08:26:31.059Z,2.30
2018-06-02T08:28:59.911Z,3.17
2018-06-02T08:31:29.418Z,2.60
2018-06-02T08:33:58.903Z,2.85
2018-06-02T08:36:27.285Z,2.80
2018-06-02T08:38:55.992Z,3.30
2018-06-02T08:41:24.888Z,3.83
2018-06-02T08:43:57.744Z,3.03
2018-06-02T08:46:26.516Z,3.53
2018-06-02T08:48:55.344Z,3.10
2018-06-02T08:51:24.830Z,3.15
2018-06-02T08:53:53.538Z,3.10
2018-06-02T08:56:23.031Z,3.42
2018-06-02T08:58:51.728Z,4.15
2018-06-02T09:01:21.218Z,3.75
2018-06-02T09:03:49.949Z,3.78
2018-06-02T09:06:18.665Z,3.97
2018-06-02T09:08:47.380Z,3.20
2018-06-02T09:11:16.105Z,3.80
2018-06-02T09:13:44.829Z,3.58
2018-06-02T09:16:13.541Z,3.87
2018-06-02T09:18:42.747Z,4.62
2018-06-02T09:21:11.506Z,3.10
2018-06-02T09:23:40.206Z,3.40
2018-06-02T09:26:08.927Z,3.12
2018-06-02T09:28:38.389Z,3.62
2018-06-02T09:31:07.115Z,3.35
2018-06-02T09:33:36.591Z,3.53
2018-06-02T09:36:05.159Z,4.10
2018-06-02T09:38:33.865Z,3.50
2018-06-02T09:41:03.126Z,4.70
2018-06-02T09:43:31.829Z,4.57
2018-06-02T09:46:01.331Z,5.20
2018-06-02T09:48:30.025Z,6.10
2018-06-02T09:50:58.733Z,5.40
2018-06-02T09:53:30.058Z,5.03
2018-06-02T09:55:58.767Z,3.80
2018-06-02T09:58:27.466Z,5.12
2018-06-02T10:00:56.186Z,6.40
2018-06-02T10:03:25.645Z,6.60
2018-06-02T10:05:54.362Z,5.80
2018-06-02T10:08:23.052Z,4.47
2018-06-02T10:10:51.850Z,6.18
2018-06-02T10:13:21.355Z,6.18
2018-06-02T10:15:50.841Z,5.30
2018-06-02T10:18:19.538Z,4.75
2018-06-02T10:20:49.038Z,5.12
2018-06-02T10:23:17.749Z,4.75
2018-06-02T10:25:47.236Z,6.15
2018-06-02T10:28:15.945Z,5.00
2018-06-02T10:30:45.422Z,5.00
2018-06-02T10:33:14.124Z,6.07
2018-06-02T10:35:43.049Z,5.85
2018-06-02T10:38:12.689Z,5.90
2018-06-02T10:40:41.403Z,5.32
2018-06-02T10:43:10.137Z,5.72
2018-06-02T10:45:38.914Z,5.72
2018-06-02T10:48:07.607Z,6.97
2018-06-02T10:50:36.333Z,5.82
2018-06-02T10:53:06.101Z,5.78
2018-06-02T10:55:34.833Z,6.07
2018-06-02T10:58:03.541Z,5.62
2018-06-02T11:00:32.567Z,5.05
2018-06-02T11:03:01.266Z,5.32
2018-06-02T11:05:29.984Z,5.65
2018-06-02T11:07:58.842Z,5.80
2018-06-02T11:10:27.564Z,6.57
2018-06-02T11:15:53.236Z,5.72
2018-06-02T11:21:10.194Z,5.97
2018-06-02T11:32:45.577Z,5.90
2018-06-02T11:35:15.225Z,5.20
2018-06-02T11:37:43.923Z,6.30
2018-06-02T11:40:12.645Z,7.55
2018-06-02T11:42:41.341Z,6.28
2018-06-02T11:45:09.742Z,7.47
2018-06-02T11:47:39.222Z,7.55
2018-06-02T11:50:08.736Z,7.22
2018-06-02T11:52:37.439Z,6.78
2018-06-02T11:55:06.901Z,5.95
2018-06-02T11:57:35.670Z,7.10
2018-06-02T12:00:03.723Z,6.47
2018-06-02T12:02:32.462Z,8.13
2018-06-02T12:05:01.215Z,7.18
2018-06-02T12:07:29.972Z,6.90
2018-06-02T12:09:58.458Z,6.90
2018-06-02T12:12:27.548Z,7.77
2018-06-02T12:14:57.030Z,6.95
2018-06-02T12:17:25.754Z,7.45
2018-06-02T12:19:55.172Z,7.57
2018-06-02T12:22:23.645Z,7.27
2018-06-02T12:24:52.028Z,8.07
2018-06-02T12:27:20.503Z,7.20
2018-06-02T12:29:49.213Z,7.82
2018-06-02T12:32:17.953Z,10.07
2018-06-02T12:34:46.696Z,8.30
2018-06-02T12:37:15.614Z,9.18
2018-06-02T12:39:44.353Z,8.60
2018-06-02T12:42:12.753Z,8.85
2018-06-02T12:44:42.161Z,8.30
2018-06-02T12:47:10.901Z,8.63
2018-06-02T12:49:40.065Z,10.60
2018-06-02T12:52:10.121Z,10.27
2018-06-02T12:54:38.854Z,10.20
2018-06-02T12:57:08.177Z,7.95
2018-06-02T12:59:36.892Z,9.27
2018-06-02T13:02:06.370Z,9.38
2018-06-02T13:04:35.058Z,7.93
2018-06-02T13:07:04.381Z,7.03
2018-06-02T13:09:32.473Z,7.00
2018-06-02T13:12:01.963Z,7.78
2018-06-02T13:14:31.450Z,8.80
2018-06-02T13:16:59.894Z,7.80
2018-06-02T13:19:29.426Z,8.02
2018-06-02T13:21:58.206Z,9.00
2018-06-02T13:24:26.643Z,8.70
2018-06-02T13:26:56.825Z,7.20
2018-06-02T13:29:25.546Z,8.13
2018-06-02T13:31:54.438Z,8.48
2018-06-02T13:34:23.781Z,7.40
2018-06-02T13:36:52.515Z,8.15
2018-06-02T13:39:21.214Z,7.35
2018-06-02T13:41:49.662Z,8.83
2018-06-02T13:44:18.353Z,7.60
2018-06-02T13:46:47.569Z,7.37
2018-06-02T13:49:16.005Z,7.67
2018-06-02T13:51:44.449Z,8.30
2018-06-02T13:54:12.899Z,7.93
2018-06-02T13:56:42.891Z,8.90
2018-06-02T13:59:11.595Z,8.23
2018-06-02T14:01:40.306Z,8.63
2018-06-02T14:04:08.780Z,8.27
2018-06-02T14:06:37.234Z,7.67
2018-06-02T14:09:05.925Z,9.50
2018-06-02T14:11:34.460Z,8.80
2018-06-02T14:14:02.894Z,7.07
2018-06-02T14:16:32.153Z,7.67
2018-06-02T14:19:00.595Z,7.70
2018-06-02T14:21:29.053Z,7.40
2018-06-02T14:23:58.016Z,6.23
2018-06-02T14:26:26.473Z,5.87
2018-06-02T14:28:54.905Z,6.63
2018-06-02T14:31:23.395Z,7.07
2018-06-02T14:33:55.164Z,6.30
2018-06-02T14:36:23.444Z,8.03
2018-06-02T14:38:52.646Z,6.97
2018-06-02T14:41:21.097Z,8.50
2018-06-02T14:43:49.534Z,6.57
2018-06-02T14:46:17.656Z,7.20
2018-06-02T14:48:46.093Z,7.13
2018-06-02T14:51:14.548Z,6.90
2018-06-02T14:53:42.972Z,7.70
2018-06-02T14:56:11.417Z,6.00
2018-06-02T14:58:39.876Z,6.53
2018-06-02T15:01:09.094Z,6.77
2018-06-02T15:03:37.538Z,6.80
2018-06-02T15:06:05.663Z,6.73
2018-06-02T15:08:34.118Z,6.80
2018-06-02T15:11:03.335Z,6.53
2018-06-02T15:13:31.789Z,6.73
2018-06-02T15:16:00.497Z,6.10
2018-06-02T15:18:28.936Z,6.80
2018-06-02T15:20:57.650Z,7.25
2018-06-02T15:23:26.834Z,6.93
2018-06-02T15:25:55.269Z,6.10
2018-06-02T15:28:23.701Z,7.30
2018-06-02T15:30:52.930Z,7.00
2018-06-02T15:33:21.361Z,7.13
2018-06-02T15:35:49.469Z,6.63
2018-06-02T15:38:18.673Z,7.67
2018-06-02T15:40:47.901Z,6.87
2018-06-02T15:43:16.340Z,6.63
2018-06-02T15:45:45.582Z,8.37
2018-06-02T15:48:14.079Z,7.33
2018-06-02T15:50:43.467Z,8.70
2018-06-02T15:53:11.902Z,8.17
2018-06-02T15:55:40.345Z,8.63
2018-06-02T15:58:09.057Z,10.00
2018-06-02T16:00:38.021Z,8.83
2018-06-02T16:03:35.497Z,9.57
2018-06-02T16:06:05.734Z,7.65
2018-06-02T16:08:34.179Z,9.00
2018-06-02T16:11:02.880Z,11.88
2018-06-02T16:13:32.273Z,11.97
2018-06-02T16:16:00.734Z,11.48
2018-06-02T16:18:29.567Z,9.95
2018-06-02T16:20:59.057Z,9.68
2018-06-02T16:23:28.194Z,11.43
2018-06-02T16:25:56.397Z,11.10
2018-06-02T16:28:24.907Z,11.95
2018-06-02T16:30:53.708Z,12.50
2018-06-02T16:33:22.429Z,13.35
2018-06-02T16:35:51.217Z,12.87
2018-06-02T16:38:19.693Z,13.30
2018-06-02T16:40:48.182Z,13.15
2018-06-02T16:43:16.662Z,15.40
2018-06-02T16:45:45.172Z,13.15
2018-06-02T16:48:14.214Z,12.23
2018-06-02T16:50:42.959Z,12.68
2018-06-02T16:53:11.465Z,13.03
2018-06-02T16:55:39.965Z,12.10
2018-06-02T16:58:08.444Z,11.35
2018-06-02T17:00:37.520Z,11.05
2018-06-02T17:03:06.003Z,11.03
2018-06-02T17:05:34.530Z,9.05
2018-06-02T17:08:02.992Z,9.95
2018-06-02T17:10:31.500Z,10.00
2018-06-02T17:13:02.738Z,11.20
2018-06-02T17:15:31.201Z,9.70
2018-06-02T17:17:59.694Z,11.48
2018-06-02T17:20:28.197Z,11.30
2018-06-02T17:22:57.788Z,10.32
2018-06-02T17:25:26.311Z,12.50
2018-06-02T17:27:54.833Z,10.72
2018-06-02T17:30:23.330Z,11.03
2018-06-02T17:32:52.614Z,10.03
2018-06-02T17:35:21.888Z,11.60
2018-06-02T17:37:50.405Z,10.80
2018-06-02T17:40:18.885Z,10.88
2018-06-02T17:42:47.825Z,11.05
2018-06-02T17:45:16.965Z,12.50
2018-06-02T17:47:45.458Z,12.60
2018-06-02T17:50:14.350Z,12.07
2018-06-02T17:52:43.828Z,11.95
2018-06-02T17:55:12.655Z,13.32
2018-06-02T17:57:41.379Z,12.95
2018-06-02T18:00:09.869Z,11.38
2018-06-02T18:02:39.361Z,11.57
2018-06-02T18:05:08.608Z,10.60
2018-06-02T18:07:38.190Z,9.40
2018-06-02T18:10:07.038Z,10.68
2018-06-02T18:12:35.944Z,11.38
2018-06-02T18:15:04.453Z,12.05
2018-06-02T18:17:32.946Z,11.03
2018-06-02T18:20:01.481Z,11.20
2018-06-02T18:22:29.949Z,11.25
2018-06-02T18:24:58.488Z,9.80
2018-06-02T18:27:27.099Z,9.75
2018-06-02T18:29:55.776Z,11.05
2018-06-02T18:32:24.608Z,10.03
2018-06-02T18:34:54.089Z,10.55
2018-06-02T18:37:22.582Z,9.90
2018-06-02T18:39:51.190Z,10.88
2018-06-02T18:42:20.034Z,9.78
2018-06-02T18:44:48.543Z,11.03
2018-06-02T18:47:17.058Z,10.63
2018-06-02T18:49:45.514Z,9.73
2018-06-02T18:52:14.995Z,11.35
2018-06-02T18:54:43.430Z,11.00
2018-06-02T18:57:11.905Z,10.15
2018-06-02T18:59:41.362Z,9.70
2018-06-02T19:02:09.870Z,9.30
2018-06-02T19:04:38.380Z,9.38
2018-06-02T19:07:06.852Z,8.55
2018-06-02T19:09:35.321Z,10.25
2018-06-02T19:12:03.828Z,9.70
2018-06-02T19:14:32.297Z,10.05
2018-06-02T19:17:00.820Z,10.28
2018-06-02T19:19:29.269Z,9.68
2018-06-02T19:21:58.365Z,10.58
2018-06-02T19:24:27.184Z,10.40
2018-06-02T19:26:56.846Z,10.78
2018-06-02T19:29:25.396Z,10.10
2018-06-02T19:31:54.853Z,11.00
2018-06-02T19:34:23.536Z,9.78
2018-06-02T19:36:51.994Z,10.72
2018-06-02T19:39:20.774Z,10.82
2018-06-02T19:41:49.264Z,9.98
2018-06-02T19:44:19.574Z,10.75
2018-06-02T19:46:47.848Z,10.70
2018-06-02T19:49:16.318Z,9.90
2018-06-02T19:51:45.273Z,10.48
2018-06-02T19:54:14.220Z,9.55
2018-06-02T19:58:06.935Z,10.65
2018-06-02T20:00:35.429Z,9.55
2018-06-02T20:03:03.921Z,10.78
2018-06-02T20:05:32.954Z,10.75
2018-06-02T20:08:01.639Z,9.80
2018-06-02T20:10:30.500Z,11.10
2018-06-02T20:12:59.073Z,9.80
2018-06-02T20:15:28.005Z,10.03
2018-06-02T20:17:56.493Z,10.05
2018-06-02T20:20:25.030Z,9.73
2018-06-02T20:22:53.880Z,9.18
2018-06-02T20:25:22.390Z,9.65
2018-06-02T20:27:51.181Z,10.65
2018-06-02T20:30:20.549Z,10.23
2018-06-02T20:32:49.604Z,9.18
2018-06-02T20:35:18.153Z,9.55
2018-06-02T20:37:47.506Z,9.60
2018-06-02T20:40:16.041Z,9.40
2018-06-02T20:42:44.525Z,10.38
2018-06-02T20:45:13.523Z,10.82
2018-06-02T20:47:42.068Z,10.93
2018-06-02T20:50:11.174Z,9.40
2018-06-02T20:58:26.484Z,11.43
2018-06-02T21:06:44.725Z,11.45
2018-06-02T21:20:03.944Z,12.45
2018-06-02T21:22:33.152Z,11.85
2018-06-02T21:25:01.994Z,12.33
2018-06-02T21:27:30.631Z,10.43
2018-06-02T21:29:59.223Z,14.85
2018-06-02T21:32:28.824Z,13.00
2018-06-02T21:34:57.562Z,12.07
2018-06-02T21:37:26.067Z,12.50
2018-06-02T21:39:54.633Z,12.50
2018-06-02T21:42:23.471Z,14.03
2018-06-02T21:44:52.015Z,14.85
2018-06-02T21:47:30.094Z,13.48
2018-06-02T21:49:58.618Z,15.30
2018-06-02T21:52:29.062Z,13.93
2018-06-02T21:54:57.562Z,15.50
2018-06-02T21:57:26.962Z,12.85
2018-06-02T21:59:55.646Z,13.28
2018-06-02T22:02:24.206Z,14.07
2018-06-02T22:04:54.926Z,13.62
2018-06-02T22:07:23.493Z,14.55
2018-06-02T22:09:52.050Z,15.58
2018-06-02T22:15:13.682Z,15.08
2018-06-02T22:17:43.144Z,14.70
2018-06-02T22:20:15.084Z,16.30
2018-06-02T22:22:56.188Z,15.43
2018-06-02T22:25:25.082Z,13.98
2018-06-02T22:27:58.870Z,15.75
2018-06-02T22:30:27.734Z,16.20
2018-06-02T22:32:56.971Z,15.53
2018-06-02T22:35:25.502Z,16.55
2018-06-02T22:37:54.042Z,16.73
2018-06-02T22:40:22.565Z,15.32
2018-06-02T22:42:51.129Z,16.10
2018-06-02T22:45:19.783Z,16.05
2018-06-02T22:47:48.297Z,17.17
2018-06-02T22:50:28.083Z,16.57
2018-06-02T22:52:57.003Z,18.30
2018-06-02T22:55:25.571Z,18.55
2018-06-02T22:57:54.103Z,17.82
2018-06-02T23:00:25.342Z,19.35
2018-06-02T23:02:53.838Z,18.80
2018-06-02T23:05:24.141Z,19.85
2018-06-02T23:07:52.697Z,19.95
2018-06-02T23:10:22.374Z,18.75
2018-06-02T23:12:51.093Z,21.45
2018-06-02T23:15:20.654Z,19.02
2018-06-02T23:17:49.181Z,20.20
2018-06-02T23:20:17.715Z,19.75
2018-06-02T23:22:46.222Z,22.90
2018-06-02T23:25:14.754Z,22.00
2018-06-02T23:27:43.309Z,21.17
2018-06-02T23:30:11.820Z,22.32
2018-06-02T23:32:40.313Z,22.02
2018-06-02T23:35:08.805Z,20.95
2018-06-02T23:37:37.289Z,22.48
2018-06-02T23:40:05.947Z,22.07
2018-06-02T23:42:34.505Z,21.70
2018-06-02T23:45:03.708Z,23.47
2018-06-02T23:47:32.197Z,23.38
2018-06-02T23:50:00.722Z,22.98
2018-06-02T23:52:29.248Z,22.80
2018-06-02T23:54:57.734Z,22.15
2018-06-02T23:57:26.241Z,23.55
2018-06-02T23:59:54.789Z,23.70
